Time;durP1;ratioP1;P1;durP2;ratioP2;P2;SDS_P1;SDS_P2;PMS_P1;PMS_P2;Temp;Humidity;BMP_temperature;BMP_pressure;BME280_temperature;BME280_humidity;BME280_pressure;Samples;Min_cycle;Max_cycle;Signal;HPM_P1;HPM_P2
2023/11/13 00:01:12;;;;;;;5.00;2.80;;;;;;;;;;5023528;28;20328;-64
2023/11/13 00:03:42;;;;;;;7.17;3.80;;;;;;;;;;5038044;28;20207;-64
2023/11/13 00:06:10;;;;;;;7.67;5.07;;;;;;;;;;5031754;28;20626;-64
2023/11/13 00:08:39;;;;;;;6.80;3.03;;;;;;;;;;5027700;28;20215;-64
2023/11/13 00:11:07;;;;;;;6.23;4.50;;;;;;;;;;5037539;28;20270;-64
2023/11/13 00:13:36;;;;;;;5.00;3.70;;;;;;;;;;5018832;28;20291;-64
2023/11/13 00:16:05;;;;;;;11.80;7.07;;;;;;;;;;5023818;28;20266;-64
2023/11/13 00:18:33;;;;;;;12.63;8.53;;;;;;;;;;5018893;28;20212;-64
2023/11/13 00:21:04;;;;;;;12.20;7.50;;;;;;;;;;5018863;28;20234;-64
2023/11/13 00:23:32;;;;;;;11.53;6.83;;;;;;;;;;5018436;28;20563;-64
2023/11/13 00:26:01;;;;;;;12.30;6.47;;;;;;;;;;5030798;28;20211;-64
2023/11/13 00:28:29;;;;;;;11.53;8.23;;;;;;;;;;5028943;28;20727;-63
2023/11/13 00:30:58;;;;;;;12.07;6.97;;;;;;;;;;5025700;28;20202;-64
2023/11/13 00:33:26;;;;;;;12.60;6.23;;;;;;;;;;5025848;28;20204;-64
2023/11/13 00:35:55;;;;;;;8.40;5.30;;;;;;;;;;5017873;28;20303;-64
2023/11/13 00:38:25;;;;;;;9.83;5.03;;;;;;;;;;5031634;28;20208;-64
2023/11/13 00:40:53;;;;;;;11.03;5.60;;;;;;;;;;5029742;28;20251;-64
2023/11/13 00:43:21;;;;;;;7.90;3.93;;;;;;;;;;5032036;28;20199;-64
2023/11/13 00:45:49;;;;;;;5.53;3.30;;;;;;;;;;5038107;28;20627;-64
2023/11/13 00:48:18;;;;;;;5.23;3.03;;;;;;;;;;5023783;28;20208;-64
2023/11/13 00:50:46;;;;;;;4.93;3.30;;;;;;;;;;5017606;28;20211;-64
2023/11/13 00:53:15;;;;;;;9.23;3.30;;;;;;;;;;5018066;28;20669;-65
2023/11/13 00:55:44;;;;;;;7.73;2.87;;;;;;;;;;5018139;28;20694;-64
2023/11/13 00:58:12;;;;;;;8.30;3.10;;;;;;;;;;5019655;28;20204;-64
2023/11/13 01:00:41;;;;;;;7.17;2.80;;;;;;;;;;5023317;28;20200;-64
2023/11/13 01:03:09;;;;;;;8.20;3.70;;;;;;;;;;5033341;28;20749;-65
2023/11/13 01:05:37;;;;;;;7.00;2.87;;;;;;;;;;5017846;28;20299;-64
2023/11/13 01:08:06;;;;;;;7.27;3.13;;;;;;;;;;5017257;28;20608;-64
2023/11/13 01:10:34;;;;;;;6.40;3.03;;;;;;;;;;5017960;28;20671;-65
2023/11/13 01:13:04;;;;;;;8.90;3.07;;;;;;;;;;5028171;28;20439;-64
2023/11/13 01:15:32;;;;;;;6.03;2.67;;;;;;;;;;5036792;28;20210;-64
2023/11/13 01:18:01;;;;;;;6.30;2.83;;;;;;;;;;5036731;28;20295;-64
2023/11/13 01:20:29;;;;;;;11.30;2.87;;;;;;;;;;5027844;28;20228;-64
2023/11/13 01:22:58;;;;;;;3.43;1.97;;;;;;;;;;5025905;28;20238;-64
2023/11/13 01:25:26;;;;;;;7.93;2.13;;;;;;;;;;5031188;28;20200;-64
2023/11/13 01:27:54;;;;;;;4.00;2.20;;;;;;;;;;5034774;28;20234;-64
2023/11/13 01:30:24;;;;;;;7.97;2.80;;;;;;;;;;5027453;28;20242;-64
2023/11/13 01:32:52;;;;;;;3.73;2.30;;;;;;;;;;5035674;28;20262;-64
2023/11/13 01:35:21;;;;;;;8.53;2.53;;;;;;;;;;5035026;28;20207;-64
2023/11/13 01:37:49;;;;;;;3.97;2.37;;;;;;;;;;5026491;28;20291;-65
2023/11/13 01:40:17;;;;;;;4.77;2.43;;;;;;;;;;5037700;28;20207;-64
2023/11/13 01:42:46;;;;;;;5.07;2.80;;;;;;;;;;5020432;28;20228;-64
2023/11/13 01:45:15;;;;;;;5.73;2.10;;;;;;;;;;5036443;28;20234;-64
2023/11/13 01:47:45;;;;;;;3.60;2.33;;;;;;;;;;5036248;28;20667;-65
2023/11/13 01:50:15;;;;;;;7.73;2.50;;;;;;;;;;5037620;28;20211;-64
2023/11/13 01:52:44;;;;;;;5.63;2.03;;;;;;;;;;5027448;28;20251;-64
2023/11/13 01:55:13;;;;;;;9.17;2.53;;;;;;;;;;5037533;28;20207;-64
2023/11/13 01:57:43;;;;;;;5.33;2.03;;;;;;;;;;5025244;28;20205;-64
2023/11/13 02:00:12;;;;;;;6.97;2.90;;;;;;;;;;5030224;28;20234;-64
2023/11/13 02:02:40;;;;;;;6.37;2.47;;;;;;;;;;5028265;28;20307;-65
2023/11/13 02:05:10;;;;;;;4.37;2.53;;;;;;;;;;5016861;28;20215;-64
2023/11/13 02:07:40;;;;;;;6.57;2.33;;;;;;;;;;5016629;28;20200;-63
2023/11/13 02:10:09;;;;;;;8.73;2.30;;;;;;;;;;5017561;28;20656;-63
2023/11/13 02:12:38;;;;;;;8.30;2.30;;;;;;;;;;5017550;28;20232;-63
2023/11/13 02:15:07;;;;;;;7.83;2.43;;;;;;;;;;5017601;28;20292;-63
2023/11/13 02:17:35;;;;;;;6.07;2.40;;;;;;;;;;5017192;28;20279;-63
2023/11/13 02:20:03;;;;;;;10.23;2.77;;;;;;;;;;5017589;28;20271;-63
2023/11/13 02:22:33;;;;;;;3.47;2.07;;;;;;;;;;5017289;28;20319;-63
2023/11/13 02:25:03;;;;;;;7.43;2.60;;;;;;;;;;5030890;28;20218;-66
2023/11/13 02:27:32;;;;;;;4.43;2.40;;;;;;;;;;5023502;28;20231;-64
2023/11/13 02:30:00;;;;;;;7.10;2.50;;;;;;;;;;5039668;28;20271;-63
2023/11/13 02:32:28;;;;;;;5.03;2.40;;;;;;;;;;5033330;28;20220;-63
2023/11/13 02:34:57;;;;;;;6.40;2.77;;;;;;;;;;5030157;28;20215;-65
2023/11/13 02:37:26;;;;;;;2.53;1.97;;;;;;;;;;5021106;28;20242;-63
2023/11/13 02:39:54;;;;;;;8.00;2.63;;;;;;;;;;5020661;28;20668;-65
2023/11/13 02:42:24;;;;;;;4.53;2.23;;;;;;;;;;5024024;28;20224;-65
2023/11/13 02:44:52;;;;;;;4.13;2.73;;;;;;;;;;5020581;28;20212;-65
2023/11/13 02:47:20;;;;;;;4.93;2.70;;;;;;;;;;5026771;28;20282;-65
2023/11/13 02:49:49;;;;;;;4.63;2.67;;;;;;;;;;5039285;28;20203;-65
2023/11/13 02:52:20;;;;;;;5.53;3.00;;;;;;;;;;5028737;28;20224;-65
2023/11/13 02:54:51;;;;;;;9.67;2.63;;;;;;;;;;5020002;28;20204;-65
2023/11/13 02:57:20;;;;;;;7.80;2.80;;;;;;;;;;5023567;28;20203;-65
2023/11/13 02:59:50;;;;;;;5.60;2.77;;;;;;;;;;5030800;28;20210;-65
2023/11/13 03:02:18;;;;;;;3.87;2.33;;;;;;;;;;5039117;28;20263;-65
2023/11/13 03:04:46;;;;;;;7.10;2.50;;;;;;;;;;5039226;28;20205;-65
2023/11/13 03:07:14;;;;;;;5.07;2.50;;;;;;;;;;5025873;28;20318;-65
2023/11/13 03:09:42;;;;;;;4.50;2.80;;;;;;;;;;5020246;28;20621;-65
2023/11/13 03:12:11;;;;;;;7.33;2.87;;;;;;;;;;5020135;28;20295;-65
2023/11/13 03:14:39;;;;;;;7.63;2.73;;;;;;;;;;5020388;28;20212;-65
2023/11/13 03:17:09;;;;;;;10.83;2.73;;;;;;;;;;5020311;28;20290;-65
2023/11/13 03:19:37;;;;;;;8.10;2.80;;;;;;;;;;5019924;28;20255;-65
2023/11/13 03:22:05;;;;;;;6.53;2.83;;;;;;;;;;5019495;28;20748;-65
2023/11/13 03:24:34;;;;;;;9.00;2.50;;;;;;;;;;5030752;28;20203;-65
2023/11/13 03:27:02;;;;;;;8.67;2.40;;;;;;;;;;5037369;28;20230;-65
2023/11/13 03:29:30;;;;;;;6.87;2.70;;;;;;;;;;5030838;28;20924;-65
2023/11/13 03:31:58;;;;;;;7.03;2.37;;;;;;;;;;5025791;28;20224;-65
2023/11/13 03:34:29;;;;;;;10.93;2.20;;;;;;;;;;5038818;28;20199;-65
2023/11/13 03:36:58;;;;;;;5.00;2.43;;;;;;;;;;5035894;28;20231;-65
2023/11/13 03:39:26;;;;;;;7.03;2.60;;;;;;;;;;5038394;28;20681;-65
2023/11/13 03:41:55;;;;;;;3.73;2.33;;;;;;;;;;5028529;28;20236;-65
2023/11/13 03:44:23;;;;;;;8.60;2.83;;;;;;;;;;5039444;28;20231;-65
2023/11/13 03:46:52;;;;;;;6.30;2.27;;;;;;;;;;5038344;28;20211;-65
2023/11/13 03:49:21;;;;;;;6.27;2.33;;;;;;;;;;5039389;28;20214;-65
2023/11/13 03:51:53;;;;;;;7.23;2.77;;;;;;;;;;5038162;28;20227;-65
2023/11/13 03:54:22;;;;;;;7.80;2.10;;;;;;;;;;5032528;28;20201;-66
2023/11/13 03:56:53;;;;;;;9.13;2.40;;;;;;;;;;5035491;28;20263;-65
2023/11/13 03:59:24;;;;;;;383.13;219.90;;;;;;;;;;5018593;28;20228;-65
2023/11/13 04:01:53;;;;;;;128.93;66.57;;;;;;;;;;5018497;28;20326;-65
2023/11/13 04:04:22;;;;;;;19.10;9.37;;;;;;;;;;5019139;28;20228;-65
2023/11/13 04:06:51;;;;;;;10.57;5.00;;;;;;;;;;5018105;28;20211;-65
2023/11/13 04:09:20;;;;;;;6.33;2.87;;;;;;;;;;5020078;28;20250;-65
2023/11/13 04:11:49;;;;;;;4.73;2.37;;;;;;;;;;5019165;28;20234;-65
2023/11/13 04:14:18;;;;;;;3.73;2.07;;;;;;;;;;5018874;28;20292;-65
2023/11/13 04:16:46;;;;;;;5.83;2.30;;;;;;;;;;5023666;28;20218;-65
2023/11/13 04:19:16;;;;;;;7.17;3.07;;;;;;;;;;5018736;28;20200;-65
2023/11/13 04:21:44;;;;;;;6.73;2.73;;;;;;;;;;5018555;28;20267;-65
2023/11/13 04:24:14;;;;;;;9.03;3.77;;;;;;;;;;5029987;28;20215;-65
2023/11/13 04:26:42;;;;;;;9.47;3.63;;;;;;;;;;5024565;28;20294;-65
2023/11/13 04:29:11;;;;;;;6.43;3.17;;;;;;;;;;5037360;28;20632;-65
2023/11/13 04:31:39;;;;;;;6.30;2.67;;;;;;;;;;5036401;28;20240;-66
2023/11/13 04:34:08;;;;;;;9.40;2.50;;;;;;;;;;5024963;28;20715;-66
2023/11/13 04:36:40;;;;;;;6.80;2.40;;;;;;;;;;5025199;28;20236;-66
2023/11/13 04:39:09;;;;;;;7.53;2.37;;;;;;;;;;5027643;28;20207;-66
2023/11/13 04:41:39;;;;;;;5.87;2.37;;;;;;;;;;5024493;28;20692;-66
2023/11/13 04:44:08;;;;;;;6.13;2.70;;;;;;;;;;5027575;28;20302;-67
2023/11/13 04:46:36;;;;;;;6.30;1.93;;;;;;;;;;5026464;28;20758;-66
2023/11/13 04:49:05;;;;;;;6.60;2.43;;;;;;;;;;5027013;28;20204;-67
2023/11/13 04:51:34;;;;;;;8.57;2.57;;;;;;;;;;5027937;28;20216;-66
2023/11/13 04:54:02;;;;;;;8.33;2.70;;;;;;;;;;5026231;28;20284;-66
2023/11/13 04:56:31;;;;;;;5.73;2.30;;;;;;;;;;5025664;28;20278;-66
2023/11/13 04:59:00;;;;;;;6.37;2.60;;;;;;;;;;5024766;28;20667;-66
2023/11/13 05:01:29;;;;;;;3.47;2.10;;;;;;;;;;5028421;28;20761;-66
2023/11/13 05:03:57;;;;;;;6.63;2.80;;;;;;;;;;5026450;28;20244;-66
2023/11/13 05:06:26;;;;;;;6.47;2.60;;;;;;;;;;5026500;28;20218;-66
2023/11/13 05:08:55;;;;;;;8.33;2.20;;;;;;;;;;5016528;28;20203;-66
2023/11/13 05:11:23;;;;;;;3.07;2.20;;;;;;;;;;5023231;28;20223;-66
2023/11/13 05:13:52;;;;;;;7.63;3.20;;;;;;;;;;5029600;28;20736;-67
2023/11/13 05:16:22;;;;;;;4.80;2.37;;;;;;;;;;5025515;28;20200;-66
2023/11/13 05:18:53;;;;;;;6.50;2.23;;;;;;;;;;5027494;28;20279;-66
2023/11/13 05:21:21;;;;;;;4.17;2.47;;;;;;;;;;5024801;28;20251;-66
2023/11/13 05:23:50;;;;;;;7.27;2.70;;;;;;;;;;5036659;28;20306;-66
2023/11/13 05:26:18;;;;;;;8.87;2.43;;;;;;;;;;5034413;28;20542;-67
2023/11/13 05:28:47;;;;;;;4.57;2.57;;;;;;;;;;5020885;28;20282;-66
2023/11/13 05:31:15;;;;;;;4.93;2.10;;;;;;;;;;5019740;28;20784;-67
2023/11/13 05:33:45;;;;;;;4.10;2.63;;;;;;;;;;5023488;28;20224;-67
2023/11/13 05:36:14;;;;;;;4.20;1.93;;;;;;;;;;5027542;28;20342;-66
2023/11/13 05:38:43;;;;;;;4.23;2.37;;;;;;;;;;5021233;28;20210;-67
2023/11/13 05:41:11;;;;;;;6.90;2.43;;;;;;;;;;5021537;28;20311;-66
2023/11/13 05:43:40;;;;;;;2.87;2.00;;;;;;;;;;5027741;28;20290;-66
2023/11/13 05:46:08;;;;;;;12.03;2.40;;;;;;;;;;5037688;28;20207;-67
2023/11/13 05:48:37;;;;;;;5.83;2.43;;;;;;;;;;5028487;28;20216;-67
2023/11/13 05:51:07;;;;;;;3.53;1.97;;;;;;;;;;5017839;28;20323;-66
2023/11/13 05:53:38;;;;;;;4.67;2.27;;;;;;;;;;5017526;28;20660;-66
2023/11/13 05:56:07;;;;;;;8.03;2.87;;;;;;;;;;5017807;28;20208;-67
2023/11/13 05:58:35;;;;;;;6.17;2.37;;;;;;;;;;5017555;28;20208;-66
2023/11/13 06:01:05;;;;;;;6.77;3.33;;;;;;;;;;5030570;28;20196;-67
2023/11/13 06:03:34;;;;;;;4.97;2.57;;;;;;;;;;5029965;28;20207;-66
2023/11/13 06:06:06;;;;;;;5.60;2.73;;;;;;;;;;5029543;28;20258;-66
2023/11/13 06:08:50;;;;;;;7.70;2.90;;;;;;;;;;5016173;28;20287;-66
2023/11/13 06:11:19;;;;;;;5.10;2.67;;;;;;;;;;5020621;28;20712;-66
2023/11/13 06:13:48;;;;;;;6.20;2.83;;;;;;;;;;5020842;28;20212;-67
2023/11/13 06:16:17;;;;;;;5.23;2.40;;;;;;;;;;5021128;28;20204;-67
2023/11/13 06:18:46;;;;;;;5.43;2.60;;;;;;;;;;5024551;28;20203;-67
2023/11/13 06:21:15;;;;;;;5.77;2.23;;;;;;;;;;5030204;28;20229;-66
2023/11/13 06:23:43;;;;;;;5.97;3.27;;;;;;;;;;5029515;28;20204;-66
2023/11/13 06:26:13;;;;;;;6.20;2.67;;;;;;;;;;5029326;28;20200;-66
2023/11/13 06:28:42;;;;;;;6.60;2.90;;;;;;;;;;5027590;28;20205;-66
2023/11/13 06:31:11;;;;;;;5.07;2.57;;;;;;;;;;5030465;28;20247;-66
2023/11/13 06:33:40;;;;;;;7.60;3.27;;;;;;;;;;5018878;28;20663;-66
2023/11/13 06:36:10;;;;;;;6.53;3.00;;;;;;;;;;5027835;28;20230;-67
2023/11/13 06:38:38;;;;;;;5.97;2.60;;;;;;;;;;5028281;28;20200;-67
2023/11/13 06:41:09;;;;;;;4.97;3.20;;;;;;;;;;5029203;28;20240;-66
2023/11/13 06:43:38;;;;;;;6.40;3.23;;;;;;;;;;5028774;28;20210;-66
2023/11/13 06:46:11;;;;;;;7.17;2.90;;;;;;;;;;5028085;28;20306;-66
2023/11/13 06:48:40;;;;;;;7.60;3.00;;;;;;;;;;5028953;28;20203;-66
2023/11/13 06:51:08;;;;;;;5.37;2.97;;;;;;;;;;5033342;28;20310;-66
2023/11/13 06:53:38;;;;;;;6.20;3.10;;;;;;;;;;5032119;28;20203;-66
2023/11/13 06:56:06;;;;;;;5.60;2.87;;;;;;;;;;5040198;28;20226;-66
2023/11/13 06:58:36;;;;;;;7.83;2.70;;;;;;;;;;5022275;28;20283;-66
2023/11/13 07:01:07;;;;;;;7.20;2.97;;;;;;;;;;5026564;28;20231;-67
2023/11/13 07:03:38;;;;;;;6.47;2.80;;;;;;;;;;5026139;28;20196;-66
2023/11/13 07:06:07;;;;;;;3.77;2.57;;;;;;;;;;5029572;28;20223;-66
2023/11/13 07:08:36;;;;;;;6.00;2.70;;;;;;;;;;5029479;28;20203;-66
2023/11/13 07:11:04;;;;;;;4.93;2.27;;;;;;;;;;5027557;28;20203;-67
2023/11/13 07:13:33;;;;;;;6.60;2.20;;;;;;;;;;5031115;28;20204;-65
2023/11/13 07:16:04;;;;;;;7.40;2.60;;;;;;;;;;5024364;28;20201;-66
2023/11/13 07:18:34;;;;;;;2.13;1.93;;;;;;;;;;5026110;28;20228;-65
2023/11/13 07:21:02;;;;;;;10.73;5.57;;;;;;;;;;5039474;28;20234;-66
2023/11/13 07:23:30;;;;;;;7.33;4.40;;;;;;;;;;5019347;28;20196;-65
2023/11/13 07:25:59;;;;;;;6.33;2.63;;;;;;;;;;5019901;28;20271;-66
2023/11/13 07:28:28;;;;;;;8.53;3.17;;;;;;;;;;5030858;28;20215;-64
2023/11/13 07:30:56;;;;;;;4.57;2.10;;;;;;;;;;5018124;28;20726;-64
2023/11/13 07:33:24;;;;;;;5.57;2.43;;;;;;;;;;5019299;28;20208;-61
2023/11/13 07:35:54;;;;;;;11.33;2.50;;;;;;;;;;5019536;28;20236;-63
2023/11/13 07:38:22;;;;;;;8.73;3.27;;;;;;;;;;5018898;28;20666;-62
2023/11/13 07:40:50;;;;;;;5.17;2.70;;;;;;;;;;5021134;28;20218;-64
2023/11/13 07:43:19;;;;;;;10.17;3.10;;;;;;;;;;5035818;28;20670;-63
2023/11/13 07:45:47;;;;;;;5.30;2.30;;;;;;;;;;5023305;28;20227;-64
2023/11/13 07:48:18;;;;;;;6.63;2.70;;;;;;;;;;5038388;28;20200;-64
2023/11/13 07:50:46;;;;;;;4.87;2.33;;;;;;;;;;5038412;28;20286;-64
2023/11/13 07:53:27;;;;;;;9.00;2.77;;;;;;;;;;5038192;28;20203;-63
2023/11/13 07:55:55;;;;;;;6.43;2.80;;;;;;;;;;5019523;28;20239;-64
2023/11/13 07:58:25;;;;;;;5.87;2.67;;;;;;;;;;5022486;28;20253;-63
2023/11/13 08:00:54;;;;;;;4.67;2.90;;;;;;;;;;5022271;28;20215;-64
2023/11/13 08:03:23;;;;;;;8.10;2.97;;;;;;;;;;5023131;28;20277;-63
2023/11/13 08:05:52;;;;;;;5.30;3.07;;;;;;;;;;5019186;28;20228;-64
2023/11/13 08:08:20;;;;;;;6.10;2.43;;;;;;;;;;5018098;28;20219;-62
2023/11/13 08:10:51;;;;;;;8.93;2.87;;;;;;;;;;5019174;28;20219;-66
2023/11/13 08:13:21;;;;;;;9.80;3.20;;;;;;;;;;5019033;28;20655;-67
2023/11/13 08:15:50;;;;;;;6.50;2.97;;;;;;;;;;5018902;28;20616;-67
2023/11/13 08:18:19;;;;;;;5.57;2.63;;;;;;;;;;5019151;28;20208;-66
2023/11/13 08:20:47;;;;;;;5.97;3.33;;;;;;;;;;5018668;28;20632;-67
2023/11/13 08:23:16;;;;;;;6.83;3.07;;;;;;;;;;5018275;28;20208;-67
2023/11/13 08:25:44;;;;;;;6.50;2.90;;;;;;;;;;5018909;28;20224;-67
2023/11/13 08:28:14;;;;;;;7.93;3.30;;;;;;;;;;5029889;28;20204;-67
2023/11/13 08:30:43;;;;;;;7.30;2.50;;;;;;;;;;5027452;28;20791;-67
2023/11/13 08:33:12;;;;;;;4.80;2.67;;;;;;;;;;5017755;28;20201;-64
2023/11/13 08:35:41;;;;;;;7.10;2.67;;;;;;;;;;5025738;28;20224;-67
2023/11/13 08:38:11;;;;;;;5.57;3.33;;;;;;;;;;5021252;28;20203;-66
2023/11/13 08:41:28;;;;;;;;;;;;;;;;;;;;;
2023/11/13 08:47:16;;;;;;;4.57;2.70;;;;;;;;;;4932586;29;20226;-66
2023/11/13 08:49:52;;;;;;;8.20;2.50;;;;;;;;;;4934066;29;20207;-65
2023/11/13 08:52:20;;;;;;;3.73;2.00;;;;;;;;;;4984992;28;20612;-64
2023/11/13 08:54:50;;;;;;;13.20;2.70;;;;;;;;;;5014396;28;20208;-65
2023/11/13 08:57:18;;;;;;;5.00;2.33;;;;;;;;;;5013573;28;20196;-64
2023/11/13 08:59:48;;;;;;;3.97;2.07;;;;;;;;;;5013587;28;20210;-65
2023/11/13 09:02:16;;;;;;;5.23;2.27;;;;;;;;;;5013972;28;20224;-64
2023/11/13 09:04:45;;;;;;;5.00;1.93;;;;;;;;;;5018416;28;20203;-66
2023/11/13 09:07:13;;;;;;;7.30;2.63;;;;;;;;;;5014781;28;20234;-66
2023/11/13 09:09:41;;;;;;;3.83;2.30;;;;;;;;;;5016187;28;20231;-66
2023/11/13 09:12:12;;;;;;;8.80;3.00;;;;;;;;;;5013870;28;20228;-65
2023/11/13 09:14:45;;;;;;;7.87;2.37;;;;;;;;;;5016397;28;20200;-63
2023/11/13 09:17:17;;;;;;;3.63;2.17;;;;;;;;;;5012781;28;20208;-65
2023/11/13 09:19:48;;;;;;;7.30;2.63;;;;;;;;;;5013181;28;20208;-65
2023/11/13 09:22:18;;;;;;;5.57;2.20;;;;;;;;;;5011918;28;20220;-66
2023/11/13 09:24:46;;;;;;;4.40;2.17;;;;;;;;;;5011585;28;20214;-66
2023/11/13 09:27:15;;;;;;;6.33;2.33;;;;;;;;;;5017057;28;20311;-65
2023/11/13 09:29:51;;;;;;;3.67;2.13;;;;;;;;;;5013734;28;20204;-66
2023/11/13 09:32:36;;;;;;;5.30;2.10;;;;;;;;;;5015264;28;20223;-64
2023/11/13 09:35:21;;;;;;;4.30;2.30;;;;;;;;;;5018507;28;20264;-65
2023/11/13 09:37:50;;;;;;;4.13;2.07;;;;;;;;;;5016568;28;20631;-66
2023/11/13 09:40:22;;;;;;;7.10;2.40;;;;;;;;;;5017882;28;20655;-67
2023/11/13 09:46:55;;;;;;;4.83;2.90;;;;;;;;;;5007491;28;20232;-67
2023/11/13 09:49:29;;;;;;;3.33;2.07;;;;;;;;;;5017580;28;20231;-67
2023/11/13 09:52:00;;;;;;;5.07;2.33;;;;;;;;;;5028864;28;20250;-64
2023/11/13 09:54:30;;;;;;;8.20;2.70;;;;;;;;;;5017574;28;20243;-65
2023/11/13 09:57:00;;;;;;;4.47;2.13;;;;;;;;;;5016699;28;20192;-66
2023/11/13 09:59:33;;;;;;;2.50;2.03;;;;;;;;;;5017062;28;20208;-65
2023/11/13 10:02:08;;;;;;;5.87;2.90;;;;;;;;;;5025098;28;20219;-66
2023/11/13 10:04:38;;;;;;;2.90;2.63;;;;;;;;;;5027937;28;20668;-67
2023/11/13 10:07:22;;;;;;;5.73;2.77;;;;;;;;;;5025783;28;20618;-65
2023/11/13 10:10:25;;;;;;;5.13;2.37;;;;;;;;;;5031599;28;20315;-65
2023/11/13 10:13:21;;;;;;;8.83;2.70;;;;;;;;;;5016527;28;20311;-65
2023/11/13 10:19:21;;;;;;;5.30;2.77;;;;;;;;;;5016521;28;20320;-66
2023/11/13 10:22:21;;;;;;;6.73;3.07;;;;;;;;;;5016643;28;20259;-65
2023/11/13 10:25:26;;;;;;;7.23;2.70;;;;;;;;;;5021044;28;20236;-66
2023/11/13 10:28:00;;;;;;;6.67;2.90;;;;;;;;;;5014741;28;20231;-66
2023/11/13 10:30:29;;;;;;;5.97;2.40;;;;;;;;;;5011643;28;20208;-66
2023/11/13 10:32:58;;;;;;;4.40;2.90;;;;;;;;;;5013869;28;20234;-66
2023/11/13 10:35:27;;;;;;;5.30;2.97;;;;;;;;;;5013550;28;20204;-65
2023/11/13 10:37:58;;;;;;;6.70;3.23;;;;;;;;;;5019133;28;20263;-64
2023/11/13 10:40:29;;;;;;;6.30;2.87;;;;;;;;;;5014656;28;20210;-66
2023/11/13 10:43:04;;;;;;;3.57;2.57;;;;;;;;;;5023838;28;20226;-64
2023/11/13 10:45:33;;;;;;;6.63;2.80;;;;;;;;;;5027237;28;20288;-66
2023/11/13 10:48:01;;;;;;;7.57;3.70;;;;;;;;;;5023744;28;20228;-64
2023/11/13 10:50:31;;;;;;;7.40;2.93;;;;;;;;;;5030838;28;20227;-66
2023/11/13 10:53:03;;;;;;;4.60;2.67;;;;;;;;;;5039164;28;20228;-65
2023/11/13 10:55:31;;;;;;;4.10;2.73;;;;;;;;;;5039229;28;20567;-65
2023/11/13 10:57:59;;;;;;;5.67;3.07;;;;;;;;;;5025367;28;20208;-65
2023/11/13 11:00:29;;;;;;;10.43;3.20;;;;;;;;;;5020471;28;20204;-65
2023/11/13 11:03:03;;;;;;;5.63;2.60;;;;;;;;;;5019882;28;20227;-65
2023/11/13 11:05:32;;;;;;;6.53;2.97;;;;;;;;;;5023609;28;20204;-65
2023/11/13 11:08:02;;;;;;;7.87;3.20;;;;;;;;;;5038956;28;20314;-65
2023/11/13 11:10:31;;;;;;;23.50;4.10;;;;;;;;;;5039157;28;20291;-65
2023/11/13 11:13:05;;;;;;;9.00;3.47;;;;;;;;;;5019260;28;20300;-65
2023/11/13 11:15:43;;;;;;;6.83;3.33;;;;;;;;;;5028664;28;20207;-65
2023/11/13 11:18:17;;;;;;;6.83;3.20;;;;;;;;;;5036784;28;20210;-65
2023/11/13 11:20:51;;;;;;;7.27;3.63;;;;;;;;;;5035444;28;20733;-64
2023/11/13 11:23:24;;;;;;;6.77;3.63;;;;;;;;;;5013368;28;20199;-65
2023/11/13 11:25:53;;;;;;;4.80;3.23;;;;;;;;;;5015927;28;20211;-64
2023/11/13 11:28:37;;;;;;;5.60;3.10;;;;;;;;;;5018847;28;20586;-65
2023/11/13 11:31:32;;;;;;;6.00;2.90;;;;;;;;;;5016309;28;20220;-65
2023/11/13 11:34:01;;;;;;;4.87;3.40;;;;;;;;;;5016608;28;20641;-67
2023/11/13 11:36:30;;;;;;;5.50;3.03;;;;;;;;;;5015932;28;20278;-66
2023/11/13 11:39:13;;;;;;;6.13;3.33;;;;;;;;;;5015455;28;20210;-65
2023/11/13 11:41:42;;;;;;;4.63;2.57;;;;;;;;;;5015039;28;20255;-65
2023/11/13 11:44:11;;;;;;;2.90;2.37;;;;;;;;;;5021186;28;20635;-67
2023/11/13 11:46:40;;;;;;;4.83;2.70;;;;;;;;;;5033103;28;20236;-66
2023/11/13 11:49:18;;;;;;;6.77;2.37;;;;;;;;;;5019074;28;20212;-69
2023/11/13 11:51:46;;;;;;;6.73;2.20;;;;;;;;;;5021300;28;20223;-68
2023/11/13 11:54:16;;;;;;;3.77;2.07;;;;;;;;;;5018235;28;20206;-69
2023/11/13 11:56:56;;;;;;;4.80;3.10;;;;;;;;;;5018887;28;20204;-63
2023/11/13 11:59:28;;;;;;;4.67;3.03;;;;;;;;;;5026251;28;20210;-64
2023/11/13 12:01:57;;;;;;;6.30;3.00;;;;;;;;;;5037935;28;20727;-63
2023/11/13 12:04:25;;;;;;;8.33;2.97;;;;;;;;;;5039076;28;20212;-67
2023/11/13 12:06:54;;;;;;;3.40;2.23;;;;;;;;;;5033012;28;20702;-68
2023/11/13 12:09:24;;;;;;;6.40;2.40;;;;;;;;;;5026813;28;20230;-67
2023/11/13 12:11:53;;;;;;;4.57;2.73;;;;;;;;;;5019087;28;20605;-66
2023/11/13 12:14:22;;;;;;;7.23;2.17;;;;;;;;;;5018947;28;20604;-67
2023/11/13 12:16:50;;;;;;;3.33;2.70;;;;;;;;;;5024252;28;20215;-67
2023/11/13 12:19:18;;;;;;;6.57;2.83;;;;;;;;;;5018798;28;20586;-67
2023/11/13 12:21:46;;;;;;;5.63;3.43;;;;;;;;;;5020377;28;20282;-66
2023/11/13 12:24:18;;;;;;;7.20;2.57;;;;;;;;;;5037747;28;20203;-67
2023/11/13 12:26:49;;;;;;;4.37;2.60;;;;;;;;;;5022059;28;20208;-68
2023/11/13 12:29:17;;;;;;;6.50;2.43;;;;;;;;;;5038160;28;20233;-66
2023/11/13 12:31:47;;;;;;;4.60;2.60;;;;;;;;;;5017455;28;20228;-67
2023/11/13 12:34:15;;;;;;;3.50;2.50;;;;;;;;;;5018523;28;20212;-66
2023/11/13 12:36:46;;;;;;;7.33;2.77;;;;;;;;;;5017729;28;20685;-66
2023/11/13 12:39:17;;;;;;;6.77;2.77;;;;;;;;;;5017903;28;20288;-66
2023/11/13 12:41:46;;;;;;;4.30;2.60;;;;;;;;;;5022830;28;20223;-66
2023/11/13 12:44:16;;;;;;;8.57;2.70;;;;;;;;;;5035487;28;20298;-66
2023/11/13 12:46:47;;;;;;;3.57;2.43;;;;;;;;;;5030083;28;20235;-66
2023/11/13 12:49:16;;;;;;;6.43;2.90;;;;;;;;;;5018651;28;20232;-66
2023/11/13 12:51:46;;;;;;;6.60;3.00;;;;;;;;;;5017917;28;20230;-65
2023/11/13 12:54:14;;;;;;;6.00;3.17;;;;;;;;;;5020051;28;20204;-66
2023/11/13 12:56:43;;;;;;;6.30;3.00;;;;;;;;;;5032050;28;20204;-66
2023/11/13 12:59:12;;;;;;;4.77;2.63;;;;;;;;;;5017940;28;20298;-67
2023/11/13 13:01:41;;;;;;;2.97;2.50;;;;;;;;;;5021171;28;20719;-67
2023/11/13 13:04:10;;;;;;;7.80;2.57;;;;;;;;;;5035354;28;20643;-66
2023/11/13 13:06:39;;;;;;;4.20;2.30;;;;;;;;;;5036849;28;20290;-67
2023/11/13 13:09:10;;;;;;;3.93;2.73;;;;;;;;;;5027865;28;20581;-66
2023/11/13 13:11:40;;;;;;;5.13;2.40;;;;;;;;;;5023951;28;20748;-66
2023/11/13 13:14:09;;;;;;;3.50;2.60;;;;;;;;;;5036808;28;20239;-66
2023/11/13 13:16:37;;;;;;;2.77;2.57;;;;;;;;;;5031860;28;20263;-67
2023/11/13 13:19:09;;;;;;;3.10;2.50;;;;;;;;;;5017262;28;20232;-67
2023/11/13 13:21:38;;;;;;;6.10;2.40;;;;;;;;;;5017274;28;20259;-66
2023/11/13 13:24:07;;;;;;;4.60;2.80;;;;;;;;;;5024581;28;20282;-67
2023/11/13 13:26:36;;;;;;;5.13;2.90;;;;;;;;;;5025614;28;20339;-66
2023/11/13 13:29:04;;;;;;;6.00;2.80;;;;;;;;;;5034244;28;20230;-65
2023/11/13 13:31:34;;;;;;;6.10;2.63;;;;;;;;;;5035544;28;20292;-66
2023/11/13 13:34:02;;;;;;;3.90;2.23;;;;;;;;;;5020717;28;20359;-65
2023/11/13 13:36:32;;;;;;;7.73;2.57;;;;;;;;;;5030735;28;20242;-66
2023/11/13 13:39:01;;;;;;;3.37;2.63;;;;;;;;;;5017709;28;20193;-66
2023/11/13 13:41:30;;;;;;;8.33;2.70;;;;;;;;;;5024377;28;20219;-66
2023/11/13 13:43:59;;;;;;;5.67;2.33;;;;;;;;;;5018992;28;20211;-66
2023/11/13 13:46:27;;;;;;;3.77;2.03;;;;;;;;;;5023701;28;20238;-66
2023/11/13 13:48:56;;;;;;;6.97;2.83;;;;;;;;;;5036241;28;20227;-66
2023/11/13 13:51:24;;;;;;;5.37;2.70;;;;;;;;;;5036165;28;20306;-65
2023/11/13 13:53:54;;;;;;;4.80;2.67;;;;;;;;;;5036619;28;20286;-65
2023/11/13 13:56:25;;;;;;;4.67;2.20;;;;;;;;;;5032153;28;20211;-66
2023/11/13 13:58:53;;;;;;;3.90;2.27;;;;;;;;;;5020967;28;20228;-66
2023/11/13 14:01:21;;;;;;;7.83;2.60;;;;;;;;;;5021011;28;20255;-66
2023/11/13 14:03:54;;;;;;;5.17;2.60;;;;;;;;;;5037393;28;20218;-65
2023/11/13 14:06:23;;;;;;;4.10;2.67;;;;;;;;;;5031557;28;20200;-66
2023/11/13 14:08:51;;;;;;;6.13;2.57;;;;;;;;;;5016850;28;20222;-66
2023/11/13 14:11:22;;;;;;;5.20;2.60;;;;;;;;;;5017200;28;20288;-67
2023/11/13 14:14:02;;;;;;;6.90;2.77;;;;;;;;;;5017444;28;20637;-66
2023/11/13 14:16:30;;;;;;;8.00;2.20;;;;;;;;;;5017256;28;20208;-66
2023/11/13 14:18:59;;;;;;;5.83;2.17;;;;;;;;;;5017089;28;20235;-66
2023/11/13 14:21:28;;;;;;;3.67;2.20;;;;;;;;;;5018822;28;20706;-66
2023/11/13 14:23:57;;;;;;;5.13;2.00;;;;;;;;;;5021290;28;20290;-65
2023/11/13 14:26:27;;;;;;;5.40;2.40;;;;;;;;;;5020248;28;20288;-66
2023/11/13 14:28:55;;;;;;;3.97;2.37;;;;;;;;;;5026969;28;20234;-66
2023/11/13 14:31:24;;;;;;;6.23;2.60;;;;;;;;;;5022909;28;20253;-65
2023/11/13 14:33:52;;;;;;;5.27;2.20;;;;;;;;;;5033033;28;20687;-67
2023/11/13 14:36:20;;;;;;;4.00;2.70;;;;;;;;;;5020088;28;20224;-65
2023/11/13 14:38:48;;;;;;;5.20;2.30;;;;;;;;;;5020122;28;20197;-66
2023/11/13 14:41:17;;;;;;;5.23;2.10;;;;;;;;;;5024331;28;20277;-65
2023/11/13 14:43:47;;;;;;;5.70;2.67;;;;;;;;;;5040443;28;20667;-66
2023/11/13 14:46:15;;;;;;;6.57;2.63;;;;;;;;;;5039491;28;20206;-65
2023/11/13 14:48:43;;;;;;;4.50;2.30;;;;;;;;;;5040134;28;20231;-66
2023/11/13 14:51:14;;;;;;;2.07;1.87;;;;;;;;;;5038245;28;20231;-66
2023/11/13 14:53:42;;;;;;;2.57;1.80;;;;;;;;;;5040253;28;20295;-66
2023/11/13 14:56:10;;;;;;;5.13;2.10;;;;;;;;;;5037171;28;20214;-66
2023/11/13 14:58:38;;;;;;;3.13;2.23;;;;;;;;;;5020776;28;20200;-65
2023/11/13 15:01:09;;;;;;;2.57;1.87;;;;;;;;;;5023422;28;20690;-65
2023/11/13 15:03:37;;;;;;;4.10;1.70;;;;;;;;;;5034497;28;20254;-66
2023/11/13 15:06:08;;;;;;;4.17;2.27;;;;;;;;;;5038842;28;20214;-65
2023/11/13 15:08:36;;;;;;;5.83;1.80;;;;;;;;;;5037376;28;20215;-66
2023/11/13 15:11:10;;;;;;;3.87;2.03;;;;;;;;;;5022099;28;20259;-66